createdAt,value
2022-08-11T00:00:43.568Z,100886.97
2022-08-11T00:01:58.138Z,100885.38
2022-08-11T00:03:12.526Z,100891.38
2022-08-11T00:04:17.196Z,100886.97
2022-08-11T00:05:22.158Z,100887.38
2022-08-11T00:06:28.062Z,100896.59
2022-08-11T00:07:34.314Z,100888.22
2022-08-11T00:08:41.053Z,100888.59
2022-08-11T00:09:43.875Z,100891.00
2022-08-11T00:10:58.616Z,100893.44
2022-08-11T00:12:03.195Z,100895.03
2022-08-11T00:13:09.939Z,100893.00
2022-08-11T00:14:21.846Z,100888.25
2022-08-11T00:15:38.339Z,100887.06
2022-08-11T00:16:43.694Z,100893.88
2022-08-11T00:17:48.010Z,100897.50
2022-08-11T00:18:55.737Z,100893.47
2022-08-11T00:20:11.857Z,100893.53
2022-08-11T00:21:21.097Z,100887.53
2022-08-11T00:22:46.809Z,100892.72
2022-08-11T00:24:04.296Z,100894.34
2022-08-11T00:25:34.116Z,100896.34
2022-08-11T00:26:41.236Z,100897.97
2022-08-11T00:27:45.769Z,100892.75
2022-08-11T00:28:55.203Z,100895.97
2022-08-11T00:30:00.856Z,100892.75
2022-08-11T00:31:12.054Z,100888.75
2022-08-11T00:32:19.918Z,100892.75
2022-08-11T00:33:44.235Z,100889.59
2022-08-11T00:34:50.354Z,100890.78
2022-08-11T00:36:00.990Z,100892.38
2022-08-11T00:37:10.327Z,100888.78
2022-08-11T00:38:14.626Z,100894.38
2022-08-11T00:39:19.414Z,100889.59
2022-08-11T00:40:44.151Z,100895.19
2022-08-11T00:42:04.390Z,100897.16
2022-08-11T00:44:01.132Z,100898.38
2022-08-11T00:45:25.281Z,100896.38
2022-08-11T00:46:37.469Z,100895.94
2022-08-11T00:48:01.233Z,100893.97
2022-08-11T00:49:03.844Z,100896.00
2022-08-11T00:50:43.225Z,100909.50
2022-08-11T00:54:00.127Z,100902.41
2022-08-11T00:55:20.883Z,100909.19
2022-08-11T00:56:53.292Z,100899.97
2022-08-11T00:58:30.033Z,100895.97
2022-08-11T00:59:49.389Z,100902.41
2022-08-11T01:01:03.926Z,100896.00
2022-08-11T01:02:39.505Z,100904.81
2022-08-11T01:04:23.626Z,100908.44
2022-08-11T01:05:55.588Z,100912.44
2022-08-11T01:08:02.389Z,100910.06
2022-08-11T01:09:22.638Z,100919.66
2022-08-11T01:11:03.611Z,100917.63
2022-08-11T01:12:20.131Z,100912.03
2022-08-11T01:13:27.644Z,100914.84
2022-08-11T01:14:58.384Z,100922.38
2022-08-11T01:16:37.948Z,100921.59
2022-08-11T01:17:44.001Z,100917.94
2022-08-11T01:19:19.415Z,100914.38
2022-08-11T01:20:49.407Z,100919.56
2022-08-11T01:22:10.530Z,100924.81
2022-08-11T01:23:27.751Z,100918.41
2022-08-11T01:24:49.645Z,100922.38
2022-08-11T01:25:57.794Z,100921.56
2022-08-11T01:27:20.170Z,100917.97
2022-08-11T01:28:59.676Z,100918.38
2022-08-11T01:30:22.170Z,100925.56
2022-08-11T01:31:59.987Z,100931.16
2022-08-11T01:33:27.397Z,100930.75
2022-08-11T01:35:12.757Z,100923.94
2022-08-11T01:36:34.743Z,100927.16
2022-08-11T01:37:52.155Z,100931.91
2022-08-11T01:39:22.235Z,100931.94
2022-08-11T01:40:45.563Z,100931.56
2022-08-11T01:42:25.324Z,100930.34
2022-08-11T01:44:24.449Z,100930.38
2022-08-11T01:45:39.054Z,100928.34
2022-08-11T01:46:54.511Z,100929.97
2022-08-11T01:48:11.724Z,100931.16
2022-08-11T01:50:08.550Z,100924.75
2022-08-11T01:51:45.395Z,100924.69
2022-08-11T01:53:05.541Z,100927.16
2022-08-11T01:54:27.431Z,100934.75
2022-08-11T01:55:51.082Z,100933.53
2022-08-11T01:57:20.719Z,100936.34
2022-08-11T01:58:43.839Z,100934.38
2022-08-11T01:59:55.316Z,100935.94
2022-08-11T02:01:28.281Z,100940.75
2022-08-11T02:02:54.210Z,100941.16
2022-08-11T02:04:17.780Z,100938.72
2022-08-11T02:05:47.875Z,100941.94
2022-08-11T02:07:24.658Z,100939.16
2022-08-11T02:08:50.672Z,100933.56
2022-08-11T02:10:59.435Z,100936.72
2022-08-11T02:12:52.403Z,100945.94
2022-08-11T02:14:16.634Z,100947.97
2022-08-11T02:15:35.680Z,100943.16
2022-08-11T02:16:46.843Z,100950.31
2022-08-11T02:17:51.593Z,100951.16
2022-08-11T02:19:31.176Z,100951.19
2022-08-11T02:21:07.230Z,100950.00
2022-08-11T02:22:36.712Z,100953.53
2022-08-11T02:24:05.036Z,100960.31
2022-08-11T02:25:31.546Z,100953.50
2022-08-11T02:26:34.014Z,100955.13
2022-08-11T02:27:46.056Z,100951.88
2022-08-11T02:29:26.305Z,100959.47
2022-08-11T02:30:47.259Z,100964.50
2022-08-11T02:32:24.399Z,100963.22
2022-08-11T02:33:38.790Z,100964.41
2022-08-11T02:34:59.576Z,100966.28
2022-08-11T02:36:09.020Z,100960.72
2022-08-11T02:37:35.189Z,100970.28
2022-08-11T02:39:25.355Z,100967.28
2022-08-11T02:41:25.413Z,100973.16
2022-08-11T02:43:01.542Z,100972.81
2022-08-11T02:44:22.041Z,100973.00
2022-08-11T02:46:01.675Z,100966.66
2022-08-11T02:47:14.864Z,100966.69
2022-08-11T02:48:52.476Z,100965.59
2022-08-11T02:50:07.433Z,100968.44
2022-08-11T02:51:47.473Z,100975.00
2022-08-11T02:53:20.270Z,100971.00
2022-08-11T02:54:53.087Z,100972.59
2022-08-11T02:56:09.328Z,100970.44
2022-08-11T02:57:35.236Z,100968.84
2022-08-11T02:59:11.490Z,100980.16
2022-08-11T03:00:16.857Z,100976.00
2022-08-11T03:01:49.536Z,100974.94
2022-08-11T03:03:24.480Z,100985.25
2022-08-11T03:04:37.911Z,100985.59
2022-08-11T03:06:06.166Z,100990.38
2022-08-11T03:07:40.602Z,100989.81
2022-08-11T03:09:19.750Z,100996.66
2022-08-11T03:10:44.638Z,100994.31
2022-08-11T03:12:26.902Z,101002.81
2022-08-11T03:13:53.299Z,100989.16
2022-08-11T03:15:23.332Z,100995.34
2022-08-11T03:16:52.969Z,100995.31
2022-08-11T03:18:28.477Z,100995.72
2022-08-11T03:20:15.691Z,101000.72
2022-08-11T03:22:01.931Z,100989.88
2022-08-11T03:23:39.783Z,100993.19
2022-08-11T03:24:44.904Z,100994.97
2022-08-11T03:25:56.882Z,100995.03
2022-08-11T03:27:01.817Z,101000.22
2022-08-11T03:28:31.770Z,100999.25
2022-08-11T03:29:42.840Z,100998.38
2022-08-11T03:31:25.006Z,100995.28
2022-08-11T03:32:35.126Z,101000.25
2022-08-11T03:34:08.466Z,100997.06
2022-08-11T03:35:21.131Z,100995.78
2022-08-11T03:37:01.732Z,100996.88
2022-08-11T03:38:11.389Z,101000.13
2022-08-11T03:39:14.413Z,100999.25
2022-08-11T03:40:38.131Z,100992.69
2022-08-11T03:42:17.728Z,100988.50
2022-08-11T03:43:58.461Z,100987.06
2022-08-11T03:45:24.270Z,100983.03
2022-08-11T03:46:39.972Z,100994.25
2022-08-11T03:48:07.584Z,100996.81
2022-08-11T03:49:19.119Z,100999.41
2022-08-11T03:50:37.019Z,100998.75
2022-08-11T03:51:58.557Z,100999.59
2022-08-11T03:53:28.346Z,101003.72
2022-08-11T03:54:48.128Z,101002.59
2022-08-11T03:56:28.571Z,100996.06
2022-08-11T03:57:53.202Z,101001.72
2022-08-11T03:59:30.042Z,101004.97
2022-08-11T04:01:09.844Z,101005.34
2022-08-11T04:02:34.753Z,101001.53
2022-08-11T04:04:18.910Z,101001.38
2022-08-11T04:05:42.667Z,100997.44
2022-08-11T04:07:17.540Z,101004.19
2022-08-11T04:08:49.027Z,101012.59
2022-08-11T04:10:01.232Z,101000.47
2022-08-11T04:11:11.278Z,101006.59
2022-08-11T04:12:45.687Z,101004.28
2022-08-11T04:13:42.562Z,101003.41
2022-08-11T04:15:38.312Z,101010.03
2022-08-11T04:16:55.095Z,100999.47
2022-08-11T04:18:44.911Z,101000.13
2022-08-11T04:20:25.366Z,101004.34
2022-08-11T04:21:58.499Z,101008.06
2022-08-11T04:24:35.528Z,101012.91
2022-08-11T04:25:09.992Z,101010.16
2022-08-11T04:26:51.305Z,101008.75
2022-08-11T04:28:31.827Z,101013.66
2022-08-11T04:30:12.350Z,101007.41
2022-08-11T04:32:06.281Z,101010.41
2022-08-11T04:33:34.268Z,100994.78
2022-08-11T04:34:42.990Z,101003.16
2022-08-11T04:36:15.743Z,101009.56
2022-08-11T04:37:36.278Z,101003.75
2022-08-11T04:39:20.483Z,101011.88
2022-08-11T04:40:41.321Z,101009.84
2022-08-11T04:42:06.142Z,101015.03
2022-08-11T04:44:02.226Z,101010.66
2022-08-11T04:45:35.952Z,101006.69
2022-08-11T04:47:13.443Z,101013.50
2022-08-11T04:48:52.972Z,101028.69
2022-08-11T04:50:20.288Z,101017.78
2022-08-11T04:52:02.823Z,101024.34
2022-08-11T04:53:57.448Z,101029.56
2022-08-11T04:55:37.865Z,101014.75
2022-08-11T04:57:02.595Z,101024.59
2022-08-11T04:58:36.648Z,101016.41
2022-08-11T05:00:25.744Z,101017.56
2022-08-11T05:02:06.455Z,101020.78
2022-08-11T05:03:38.091Z,101017.56
2022-08-11T05:05:18.759Z,101018.00
2022-08-11T05:07:15.139Z,101025.13
2022-08-11T05:08:51.536Z,101022.53
2022-08-11T05:10:07.681Z,101022.06
2022-08-11T05:11:22.172Z,101028.31
2022-08-11T05:12:30.565Z,101017.81
2022-08-11T05:13:54.024Z,101022.91
2022-08-11T05:15:16.711Z,101023.66
2022-08-11T05:16:49.484Z,101027.19
2022-08-11T05:18:35.832Z,101023.91
2022-08-11T05:19:57.129Z,101034.09
2022-08-11T05:21:25.167Z,101036.81
2022-08-11T05:22:49.048Z,101025.88
2022-08-11T05:24:17.101Z,101027.72
2022-08-11T05:26:43.465Z,101022.94
2022-08-11T05:27:34.388Z,101034.31
2022-08-11T05:29:20.201Z,101028.78
2022-08-11T05:30:47.678Z,101026.13
2022-08-11T05:32:17.939Z,101021.56
2022-08-11T05:34:06.246Z,101029.44
2022-08-11T05:35:09.432Z,101029.41
2022-08-11T05:36:28.224Z,101025.59
2022-08-11T05:37:30.342Z,101031.25
2022-08-11T05:38:54.862Z,101024.97
2022-08-11T05:40:24.644Z,101023.38
2022-08-11T05:41:49.436Z,101025.13
2022-08-11T05:43:15.619Z,101028.94
2022-08-11T05:44:38.447Z,101026.50
2022-08-11T05:46:03.717Z,101030.75
2022-08-11T05:47:26.278Z,101034.53
2022-08-11T05:48:54.021Z,101028.13
2022-08-11T05:50:15.882Z,101027.31
2022-08-11T05:51:37.975Z,101030.81
2022-08-11T05:52:59.307Z,101033.50
2022-08-11T05:54:28.128Z,101029.44
2022-08-11T05:56:02.413Z,101032.53
2022-08-11T05:57:08.029Z,101023.03
2022-08-11T05:58:13.647Z,101031.13
2022-08-11T05:59:18.633Z,101032.69
2022-08-11T06:00:21.305Z,101036.16
2022-08-11T06:01:34.054Z,101029.91
2022-08-11T06:02:54.326Z,101025.19
2022-08-11T06:04:16.439Z,101032.97
2022-08-11T06:05:19.698Z,101026.72
2022-08-11T06:06:22.983Z,101020.19
2022-08-11T06:07:48.461Z,101026.88
2022-08-11T06:08:57.389Z,101030.53
2022-08-11T06:10:03.759Z,101034.22
2022-08-11T06:11:06.840Z,101033.13
2022-08-11T06:12:21.946Z,101027.25
2022-08-11T06:13:26.038Z,101029.22
2022-08-11T06:14:29.658Z,101020.72
2022-08-11T06:15:34.268Z,101019.56
2022-08-11T06:16:37.512Z,101013.84
2022-08-11T06:17:47.965Z,101015.13
2022-08-11T06:18:50.222Z,101017.81
2022-08-11T06:20:07.537Z,101013.72
2022-08-11T06:21:11.808Z,101018.13
2022-08-11T06:22:20.297Z,101013.28
2022-08-11T06:23:24.378Z,101019.19
2022-08-11T06:24:28.575Z,101024.81
2022-08-11T06:25:33.179Z,101025.47
2022-08-11T06:26:49.517Z,101031.47
2022-08-11T06:27:58.164Z,101027.06
2022-08-11T06:29:02.052Z,101023.66
2022-08-11T06:30:13.895Z,101021.72
2022-08-11T06:31:19.985Z,101028.59
2022-08-11T06:32:26.467Z,101030.22
2022-08-11T06:33:44.153Z,101023.66
2022-08-11T06:34:55.533Z,101025.84
2022-08-11T06:36:07.061Z,101029.56
2022-08-11T06:37:47.054Z,101029.72
2022-08-11T06:39:21.388Z,101025.16
2022-08-11T06:40:36.942Z,101025.47
2022-08-11T06:41:49.843Z,101023.16
2022-08-11T06:43:06.056Z,101025.47
2022-08-11T06:44:13.972Z,101032.16
2022-08-11T06:45:21.048Z,101036.38
2022-08-11T06:46:31.487Z,101029.75
2022-08-11T06:47:35.094Z,101028.09
2022-08-11T06:48:45.174Z,101017.31
2022-08-11T06:50:07.712Z,101027.03
2022-08-11T06:51:14.004Z,101031.34
2022-08-11T06:52:34.805Z,101024.03
2022-08-11T06:54:04.437Z,101032.28
2022-08-11T06:55:57.673Z,101023.09
2022-08-11T06:57:30.842Z,101020.44
2022-08-11T06:58:59.061Z,101019.75
2022-08-11T07:00:20.770Z,101023.81
2022-08-11T07:01:55.044Z,101030.59
2022-08-11T07:03:09.631Z,101026.19
2022-08-11T07:04:15.132Z,101027.84
2022-08-11T07:05:45.577Z,101026.06
2022-08-11T07:07:20.432Z,101027.91
2022-08-11T07:09:00.167Z,101029.38
2022-08-11T07:10:44.381Z,101032.78
2022-08-11T07:12:43.584Z,101029.59
2022-08-11T07:14:05.372Z,101026.94
2022-08-11T07:16:12.852Z,101026.81
2022-08-11T07:16:53.205Z,101020.25
2022-08-11T07:18:19.359Z,101023.31
2022-08-11T07:19:45.009Z,101016.47
2022-08-11T07:22:01.365Z,101017.97
2022-08-11T07:22:51.474Z,101018.91
2022-08-11T07:24:14.686Z,101017.81
2022-08-11T07:25:36.353Z,101019.81
2022-08-11T07:27:02.696Z,101020.16
2022-08-11T07:28:33.467Z,101017.59
2022-08-11T07:29:39.318Z,101023.78
2022-08-11T07:30:43.018Z,101012.41
2022-08-11T07:31:51.260Z,101018.81
2022-08-11T07:32:57.327Z,101020.75
2022-08-11T07:34:15.913Z,101008.72
2022-08-11T07:35:34.642Z,101013.72
2022-08-11T07:36:43.248Z,101012.34
2022-08-11T07:38:01.351Z,101006.31
2022-08-11T07:39:07.926Z,101012.44
2022-08-11T07:40:11.732Z,101014.53
2022-08-11T07:41:15.766Z,101017.47
2022-08-11T07:42:23.985Z,101017.34
2022-08-11T07:43:26.565Z,101014.91
2022-08-11T07:44:35.082Z,101011.00
2022-08-11T07:46:04.757Z,101023.59
2022-08-11T07:47:25.876Z,101011.91
2022-08-11T07:48:48.611Z,101015.81
2022-08-11T07:50:12.405Z,101016.56
2022-08-11T07:51:38.487Z,101021.66
2022-08-11T07:52:41.216Z,101025.31
2022-08-11T07:53:58.712Z,101019.19
2022-08-11T07:55:13.899Z,101015.72
2022-08-11T07:56:24.905Z,101021.25
2022-08-11T07:58:16.499Z,101025.50
2022-08-11T08:00:04.124Z,101023.41
2022-08-11T08:01:38.875Z,101019.47
2022-08-11T08:03:02.570Z,101023.09
2022-08-11T08:04:25.418Z,101025.56
2022-08-11T08:05:46.721Z,101018.06
2022-08-11T08:07:08.249Z,101008.75
2022-08-11T08:08:30.453Z,101014.94
2022-08-11T08:09:54.982Z,101014.22
2022-08-11T08:11:16.436Z,101013.75
2022-08-11T08:12:40.844Z,101025.38
2022-08-11T08:14:05.582Z,101025.06
2022-08-11T08:15:28.570Z,101018.91
2022-08-11T08:16:50.538Z,101019.16
2022-08-11T08:18:20.903Z,101003.75
2022-08-11T08:19:21.871Z,101015.69
2022-08-11T08:20:50.457Z,101011.72
2022-08-11T08:21:53.668Z,101008.53
2022-08-11T08:23:10.088Z,101012.25
2022-08-11T08:24:12.916Z,101006.81
2022-08-11T08:25:15.720Z,101015.84
2022-08-11T08:26:37.359Z,101012.78
2022-08-11T08:27:40.258Z,101012.06
2022-08-11T08:28:46.787Z,101009.13
2022-08-11T08:30:08.304Z,101013.75
2022-08-11T08:31:11.084Z,101017.47
2022-08-11T08:32:14.406Z,101013.59
2022-08-11T08:33:35.123Z,101012.91
2022-08-11T08:34:40.374Z,101011.78
2022-08-11T08:35:54.071Z,101005.16
2022-08-11T08:36:58.305Z,101006.16
2022-08-11T08:38:01.476Z,101010.69
2022-08-11T08:39:03.626Z,101002.28
2022-08-11T08:40:09.964Z,101001.75
2022-08-11T08:41:16.663Z,100997.31
2022-08-11T08:42:27.722Z,100996.53
2022-08-11T08:43:32.526Z,101005.38
2022-08-11T08:45:06.105Z,100994.59
2022-08-11T08:46:10.718Z,100993.41
2022-08-11T08:47:41.664Z,100991.53
2022-08-11T08:48:43.368Z,100999.81
2022-08-11T08:49:51.923Z,101005.63
2022-08-11T08:51:21.953Z,101002.19
2022-08-11T08:52:31.895Z,101003.88
2022-08-11T08:53:52.351Z,101011.41
2022-08-11T08:55:00.294Z,101004.53
2022-08-11T08:56:03.470Z,101000.94
2022-08-11T08:57:08.443Z,101001.13
2022-08-11T08:58:12.501Z,101009.78
2022-08-11T08:59:16.689Z,100993.22
2022-08-11T09:00:23.369Z,101010.78
2022-08-11T09:01:31.460Z,101001.31
2022-08-11T09:02:39.707Z,101005.91
2022-08-11T09:04:05.240Z,100995.75
2022-08-11T09:05:08.119Z,100997.94
2022-08-11T09:06:11.385Z,100988.03
2022-08-11T09:07:17.115Z,101000.59
2022-08-11T09:08:22.034Z,100996.31
2022-08-11T09:09:25.955Z,100997.69
2022-08-11T09:10:31.159Z,100996.88
2022-08-11T09:11:52.995Z,101002.81
2022-08-11T09:12:55.672Z,100998.59
2022-08-11T09:14:05.161Z,100997.34
2022-08-11T09:15:10.616Z,100993.03
2022-08-11T09:16:16.227Z,100992.63
2022-08-11T09:17:20.534Z,100998.34
2022-08-11T09:18:22.982Z,100993.94
2022-08-11T09:19:26.885Z,100993.66
2022-08-11T09:20:34.551Z,100993.09
2022-08-11T09:21:48.410Z,100983.16
2022-08-11T09:24:06.708Z,100984.56
2022-08-11T09:24:56.347Z,100979.56
2022-08-11T09:26:19.667Z,100976.81
2022-08-11T09:27:24.387Z,100977.09
2022-08-11T09:28:29.824Z,100978.88
2022-08-11T09:29:33.206Z,100981.72
2022-08-11T09:30:36.051Z,100978.72
2022-08-11T09:31:40.348Z,100972.44
2022-08-11T09:32:43.537Z,100984.53
2022-08-11T09:33:47.071Z,100970.13
2022-08-11T09:34:52.490Z,100973.41
2022-08-11T09:35:57.817Z,100981.59
2022-08-11T09:37:28.386Z,100987.13
2022-08-11T09:39:00.370Z,100977.75
2022-08-11T09:40:23.150Z,100974.34
2022-08-11T09:42:01.943Z,100975.03
2022-08-11T09:43:20.189Z,100974.66
2022-08-11T09:44:41.985Z,100971.72
2022-08-11T09:45:51.656Z,100970.13
2022-08-11T09:46:59.525Z,100973.97
2022-08-11T09:48:05.457Z,100960.66
2022-08-11T09:49:08.948Z,100970.38
2022-08-11T09:50:15.281Z,100969.03
2022-08-11T09:51:18.131Z,100976.09
2022-08-11T09:52:22.861Z,100970.44
2022-08-11T09:53:41.065Z,100973.53
2022-08-11T09:54:48.241Z,100971.84
2022-08-11T09:55:54.953Z,100972.28
2022-08-11T09:57:17.030Z,100964.84
2022-08-11T09:58:42.365Z,100974.38
2022-08-11T09:59:42.804Z,100967.97
2022-08-11T10:00:49.418Z,100959.56
2022-08-11T10:02:00.714Z,100970.81
2022-08-11T10:03:07.480Z,100962.88
2022-08-11T10:04:17.705Z,100968.78
2022-08-11T10:05:39.848Z,100964.19
2022-08-11T10:07:04.497Z,100970.13
2022-08-11T10:08:12.715Z,100967.91
2022-08-11T10:09:21.103Z,100961.22
2022-08-11T10:10:27.391Z,100956.50
2022-08-11T10:11:30.560Z,100965.84
2022-08-11T10:12:36.739Z,100967.59
2022-08-11T10:14:32.825Z,100966.75
2022-08-11T10:15:38.454Z,100957.13
2022-08-11T10:16:43.128Z,100961.44
2022-08-11T10:18:08.984Z,100953.50
2022-08-11T10:19:11.859Z,100943.66
2022-08-11T10:20:14.832Z,100950.94
2022-08-11T10:21:30.998Z,100957.84
2022-08-11T10:22:53.867Z,100953.53
2022-08-11T10:24:18.444Z,100955.03
2022-08-11T10:25:40.117Z,100961.66
2022-08-11T10:26:55.940Z,100959.34
2022-08-11T10:28:28.711Z,100946.88
2022-08-11T10:29:49.814Z,100954.00
2022-08-11T10:31:32.569Z,100955.91
2022-08-11T10:33:10.617Z,100952.63
2022-08-11T10:34:24.631Z,100957.44
2022-08-11T10:35:32.195Z,100953.78
2022-08-11T10:36:51.042Z,100953.13
2022-08-11T10:38:06.531Z,100955.34
2022-08-11T10:39:18.054Z,100958.22
2022-08-11T10:40:24.438Z,100957.28
2022-08-11T10:42:08.596Z,100955.94
2022-08-11T10:43:14.539Z,100957.72
2022-08-11T10:44:45.570Z,100948.44
2022-08-11T10:46:36.549Z,100950.63
2022-08-11T10:47:44.456Z,100949.31
2022-08-11T10:48:52.453Z,100945.59
2022-08-11T10:50:21.993Z,100940.03
2022-08-11T10:51:50.561Z,100942.75
2022-08-11T10:53:18.507Z,100943.69
2022-08-11T10:54:44.811Z,100942.41
2022-08-11T10:56:08.632Z,100935.16
2022-08-11T10:57:30.963Z,100939.44
2022-08-11T10:58:52.204Z,100935.47
2022-08-11T10:59:56.071Z,100943.28
2022-08-11T11:01:00.932Z,100931.56
2022-08-11T11:02:03.888Z,100936.47
2022-08-11T11:03:23.070Z,100932.19
2022-08-11T11:04:50.968Z,100926.09
2022-08-11T11:06:28.836Z,100923.53
2022-08-11T11:07:30.857Z,100917.94
2022-08-11T11:08:57.699Z,100922.22
2022-08-11T11:10:08.785Z,100922.59
2022-08-11T11:11:18.444Z,100921.31
2022-08-11T11:13:04.902Z,100922.97
2022-08-11T11:14:30.444Z,100925.69
2022-08-11T11:15:54.576Z,100913.41
2022-08-11T11:17:16.762Z,100914.19
2022-08-11T11:18:23.251Z,100919.59
2022-08-11T11:19:28.063Z,100909.97
2022-08-11T11:20:47.839Z,100910.72
2022-08-11T11:21:53.988Z,100917.72
2022-08-11T11:23:01.936Z,100912.50
2022-08-11T11:24:41.475Z,100908.09
2022-08-11T11:26:13.075Z,100911.97
2022-08-11T11:27:28.736Z,100913.56
2022-08-11T11:28:55.339Z,100915.28
2022-08-11T11:30:08.559Z,100911.69
2022-08-11T11:31:31.578Z,100903.28
2022-08-11T11:32:49.936Z,100901.25
2022-08-11T11:34:12.344Z,100904.72
2022-08-11T11:35:28.151Z,100906.28
2022-08-11T11:36:50.877Z,100911.38
2022-08-11T11:38:03.997Z,100909.50
2022-08-11T11:39:18.607Z,100908.22
2022-08-11T11:40:28.692Z,100906.66
2022-08-11T11:41:35.616Z,100909.19
2022-08-11T11:42:42.056Z,100910.44
2022-08-11T11:43:46.215Z,100906.47
2022-08-11T11:44:49.519Z,100896.53
2022-08-11T11:45:53.198Z,100891.75
2022-08-11T11:46:56.875Z,100900.31
2022-08-11T11:48:01.436Z,100903.16
2022-08-11T11:49:15.323Z,100899.38
2022-08-11T11:50:25.119Z,100898.16
2022-08-11T11:51:37.573Z,100896.13
2022-08-11T11:52:43.924Z,100898.94
2022-08-11T11:53:48.811Z,100897.69
2022-08-11T11:54:56.348Z,100897.16
2022-08-11T11:56:00.549Z,100900.13
2022-08-11T11:57:23.359Z,100893.22
2022-08-11T11:58:48.068Z,100905.88
2022-08-11T12:00:10.472Z,100904.91
2022-08-11T12:01:17.339Z,100904.13
2022-08-11T12:02:20.461Z,100900.53
2022-08-11T12:03:27.501Z,100892.72
2022-08-11T12:04:33.314Z,100902.28
2022-08-11T12:05:37.981Z,100888.91
2022-08-11T12:06:42.374Z,100889.19
2022-08-11T12:08:05.294Z,100892.44
2022-08-11T12:09:18.597Z,100886.66
2022-08-11T12:10:24.805Z,100894.09
2022-08-11T12:11:48.791Z,100889.19
2022-08-11T12:13:13.515Z,100893.50
2022-08-11T12:14:21.967Z,100884.13
2022-08-11T12:16:03.633Z,100890.16
2022-08-11T12:16:51.860Z,100886.00
2022-08-11T12:17:55.706Z,100888.84
2022-08-11T12:19:00.924Z,100892.16
2022-08-11T12:20:04.918Z,100889.88
2022-08-11T12:21:29.211Z,100885.31
2022-08-11T12:22:50.704Z,100886.34
2022-08-11T12:24:14.447Z,100887.03
2022-08-11T12:25:37.493Z,100889.19
2022-08-11T12:27:16.278Z,100885.72
2022-08-11T12:28:23.212Z,100878.13
2022-08-11T12:29:35.807Z,100882.88
2022-08-11T12:31:46.981Z,100885.47
2022-08-11T12:32:50.853Z,100881.69
2022-08-11T12:34:00.187Z,100886.91
2022-08-11T12:35:03.437Z,100880.97
2022-08-11T12:36:06.691Z,100875.63
2022-08-11T12:37:14.030Z,100882.09
2022-08-11T12:38:18.321Z,100887.59
2022-08-11T12:40:16.415Z,100886.31
2022-08-11T12:41:41.017Z,100886.91
2022-08-11T12:43:20.664Z,100887.88
2022-08-11T12:44:47.469Z,100883.50
2022-08-11T12:45:59.034Z,100889.66
2022-08-11T12:47:02.545Z,100884.13
2022-08-11T12:48:59.136Z,100882.41
2022-08-11T12:50:22.714Z,100878.38
2022-08-11T12:52:11.528Z,100875.69
2022-08-11T12:53:13.297Z,100878.53
2022-08-11T12:54:23.229Z,100883.09
2022-08-11T12:56:03.646Z,100876.78
2022-08-11T12:57:38.063Z,100866.19
2022-08-11T12:58:43.557Z,100872.16
2022-08-11T13:00:08.168Z,100871.88
2022-08-11T13:01:32.698Z,100879.75
2022-08-11T13:02:54.441Z,100876.19
2022-08-11T13:04:19.061Z,100873.34
2022-08-11T13:05:22.704Z,100869.31
2022-08-11T13:06:28.042Z,100877.19
2022-08-11T13:07:50.554Z,100881.78
2022-08-11T13:09:00.992Z,100872.44
2022-08-11T13:10:07.064Z,100875.47
2022-08-11T13:11:55.548Z,100867.28
2022-08-11T13:12:59.797Z,100866.81
2022-08-11T13:14:03.741Z,100870.00
2022-08-11T13:15:08.276Z,100867.44
2022-08-11T13:16:11.695Z,100873.44
2022-08-11T13:17:43.545Z,100862.03
2022-08-11T13:18:47.104Z,100865.66
2022-08-11T13:19:50.244Z,100868.97
2022-08-11T13:20:54.838Z,100863.78
2022-08-11T13:22:02.925Z,100864.25
2022-08-11T13:23:06.913Z,100867.72
2022-08-11T13:24:09.972Z,100862.38
2022-08-11T13:25:18.946Z,100864.59
2022-08-11T13:26:25.023Z,100870.28
2022-08-11T13:27:48.963Z,100863.16
2022-08-11T13:28:54.715Z,100862.00
2022-08-11T13:30:17.929Z,100871.16
2022-08-11T13:31:20.554Z,100864.88
2022-08-11T13:32:26.845Z,100873.59
2022-08-11T13:33:30.114Z,100866.31
2022-08-11T13:34:33.624Z,100867.44
2022-08-11T13:35:39.509Z,100868.06
2022-08-11T13:36:43.244Z,100867.47
2022-08-11T13:38:19.184Z,100871.72
2022-08-11T13:39:14.308Z,100865.84
2022-08-11T13:40:27.870Z,100857.84
2022-08-11T13:41:39.511Z,100866.06
2022-08-11T13:42:42.281Z,100863.63
2022-08-11T13:43:45.683Z,100859.75
2022-08-11T13:44:50.832Z,100853.94
2022-08-11T13:46:13.896Z,100860.22
2022-08-11T13:47:16.753Z,100856.09
2022-08-11T13:48:19.203Z,100856.41
2022-08-11T13:49:22.827Z,100852.16
2022-08-11T13:50:45.399Z,100861.13
2022-08-11T13:51:48.603Z,100863.00
2022-08-11T13:52:53.470Z,100854.56
2022-08-11T13:53:57.892Z,100859.75
2022-08-11T13:55:08.556Z,100856.91
2022-08-11T13:56:10.985Z,100845.69
2022-08-11T13:58:09.096Z,100851.72
2022-08-11T13:58:40.564Z,100854.59
2022-08-11T13:59:52.483Z,100846.75
2022-08-11T14:00:56.286Z,100853.72
2022-08-11T14:02:28.799Z,100850.06
2022-08-11T14:04:29.733Z,100845.03
2022-08-11T14:05:17.964Z,100848.81
2022-08-11T14:06:22.833Z,100856.03
2022-08-11T14:07:32.964Z,100854.44
2022-08-11T14:08:41.791Z,100850.22
2022-08-11T14:09:47.237Z,100845.31
2022-08-11T14:12:23.021Z,100844.69
2022-08-11T14:13:06.379Z,100839.97
2022-08-11T14:14:13.866Z,100838.09
2022-08-11T14:15:34.037Z,100845.97
2022-08-11T14:16:43.112Z,100846.91
2022-08-11T14:17:48.974Z,100844.06
2022-08-11T14:19:00.662Z,100844.06
2022-08-11T14:20:14.169Z,100837.75
2022-08-11T14:21:55.581Z,100836.16
2022-08-11T14:22:59.599Z,100830.94
2022-08-11T14:24:04.997Z,100830.47
2022-08-11T14:25:07.691Z,100833.63
2022-08-11T14:26:23.806Z,100827.94
2022-08-11T14:28:30.424Z,100834.56
2022-08-11T14:29:06.130Z,100838.19
2022-08-11T14:30:28.847Z,100830.78
2022-08-11T14:31:33.774Z,100832.34
2022-08-11T14:32:36.224Z,100824.81
2022-08-11T14:33:58.236Z,100828.09
2022-08-11T14:35:01.509Z,100820.63
2022-08-11T14:36:07.731Z,100817.50
2022-08-11T14:37:21.998Z,100822.84
2022-08-11T14:38:24.650Z,100816.84
2022-08-11T14:39:30.027Z,100823.47
2022-08-11T14:40:51.344Z,100814.81
2022-08-11T14:42:14.975Z,100818.41
2022-08-11T14:44:13.139Z,100812.13
2022-08-11T14:45:21.211Z,100815.44
2022-08-11T14:46:44.304Z,100813.69
2022-08-11T14:47:50.725Z,100810.72
2022-08-11T14:48:55.463Z,100817.81
2022-08-11T14:50:10.398Z,100812.75
2022-08-11T14:51:15.157Z,100811.47
2022-08-11T14:52:21.808Z,100816.53
2022-08-11T14:53:24.593Z,100811.63
2022-08-11T14:54:49.355Z,100808.94
2022-08-11T14:56:12.589Z,100804.22
2022-08-11T14:57:16.500Z,100806.09
2022-08-11T14:58:22.402Z,100809.22
2022-08-11T14:59:26.641Z,100807.66
2022-08-11T15:00:30.453Z,100804.66
2022-08-11T15:01:51.774Z,100807.50
2022-08-11T15:03:13.795Z,100796.97